sensor_id;sensor_type;location;lat;lon;timestamp;P1;durP1;ratioP1;P2;durP2;ratioP2
9904;SDS011;4991;43.566;27.820;2023-10-08T00:01:28;7.97;;;4.67;;
9904;SDS011;4991;43.566;27.820;2023-10-08T00:03:59;8.53;;;4.77;;
9904;SDS011;4991;43.566;27.820;2023-10-08T00:09:14;8.60;;;4.70;;
9904;SDS011;4991;43.566;27.820;2023-10-08T00:14:22;9.33;;;4.13;;
9904;SDS011;4991;43.566;27.820;2023-10-08T00:16:48;7.67;;;4.33;;
9904;SDS011;4991;43.566;27.820;2023-10-08T00:19:15;8.20;;;4.27;;
9904;SDS011;4991;43.566;27.820;2023-10-08T00:21:56;6.07;;;4.00;;
9904;SDS011;4991;43.566;27.820;2023-10-08T00:27:24;7.03;;;3.90;;
9904;SDS011;4991;43.566;27.820;2023-10-08T00:29:50;9.33;;;4.10;;
9904;SDS011;4991;43.566;27.820;2023-10-08T00:32:15;6.57;;;4.17;;
9904;SDS011;4991;43.566;27.820;2023-10-08T00:34:42;6.23;;;4.10;;
9904;SDS011;4991;43.566;27.820;2023-10-08T00:37:09;7.30;;;4.27;;
9904;SDS011;4991;43.566;27.820;2023-10-08T00:39:40;8.73;;;3.80;;
9904;SDS011;4991;43.566;27.820;2023-10-08T00:42:07;9.90;;;4.20;;
9904;SDS011;4991;43.566;27.820;2023-10-08T00:44:33;6.97;;;3.87;;
9904;SDS011;4991;43.566;27.820;2023-10-08T00:47:16;6.87;;;3.80;;
9904;SDS011;4991;43.566;27.820;2023-10-08T00:49:45;8.00;;;4.67;;
9904;SDS011;4991;43.566;27.820;2023-10-08T00:52:11;8.47;;;4.40;;
9904;SDS011;4991;43.566;27.820;2023-10-08T00:54:39;10.47;;;3.90;;
9904;SDS011;4991;43.566;27.820;2023-10-08T00:57:27;9.60;;;3.77;;
9904;SDS011;4991;43.566;27.820;2023-10-08T00:59:55;7.67;;;3.97;;
9904;SDS011;4991;43.566;27.820;2023-10-08T01:02:27;5.30;;;3.53;;
9904;SDS011;4991;43.566;27.820;2023-10-08T01:05:08;8.23;;;3.83;;
9904;SDS011;4991;43.566;27.820;2023-10-08T01:07:35;5.47;;;3.43;;
9904;SDS011;4991;43.566;27.820;2023-10-08T01:10:01;7.30;;;3.70;;
9904;SDS011;4991;43.566;27.820;2023-10-08T01:12:35;5.63;;;3.63;;
9904;SDS011;4991;43.566;27.820;2023-10-08T01:15:09;7.90;;;4.17;;
9904;SDS011;4991;43.566;27.820;2023-10-08T01:17:54;5.50;;;3.70;;
9904;SDS011;4991;43.566;27.820;2023-10-08T01:20:27;9.00;;;3.43;;
9904;SDS011;4991;43.566;27.820;2023-10-08T01:22:59;7.27;;;4.30;;
9904;SDS011;4991;43.566;27.820;2023-10-08T01:25:39;8.70;;;4.07;;
9904;SDS011;4991;43.566;27.820;2023-10-08T01:28:07;5.53;;;3.73;;
9904;SDS011;4991;43.566;27.820;2023-10-08T01:30:47;6.97;;;4.10;;
9904;SDS011;4991;43.566;27.820;2023-10-08T01:33:14;7.47;;;4.03;;
9904;SDS011;4991;43.566;27.820;2023-10-08T01:35:41;7.43;;;3.87;;
9904;SDS011;4991;43.566;27.820;2023-10-08T01:38:07;5.70;;;4.03;;
9904;SDS011;4991;43.566;27.820;2023-10-08T01:40:38;7.03;;;3.60;;
9904;SDS011;4991;43.566;27.820;2023-10-08T01:43:05;8.80;;;4.10;;
9904;SDS011;4991;43.566;27.820;2023-10-08T01:45:30;6.47;;;3.20;;
9904;SDS011;4991;43.566;27.820;2023-10-08T01:47:58;7.00;;;4.20;;
9904;SDS011;4991;43.566;27.820;2023-10-08T01:50:23;6.63;;;4.33;;
9904;SDS011;4991;43.566;27.820;2023-10-08T01:52:55;8.47;;;3.37;;
9904;SDS011;4991;43.566;27.820;2023-10-08T01:55:21;7.03;;;4.00;;
9904;SDS011;4991;43.566;27.820;2023-10-08T01:57:47;4.23;;;3.00;;
9904;SDS011;4991;43.566;27.820;2023-10-08T02:00:17;6.50;;;3.40;;
9904;SDS011;4991;43.566;27.820;2023-10-08T02:02:47;4.60;;;3.43;;
9904;SDS011;4991;43.566;27.820;2023-10-08T02:05:15;4.97;;;3.70;;
9904;SDS011;4991;43.566;27.820;2023-10-08T02:07:46;4.90;;;2.97;;
9904;SDS011;4991;43.566;27.820;2023-10-08T02:10:13;9.20;;;3.63;;
9904;SDS011;4991;43.566;27.820;2023-10-08T02:12:39;7.77;;;4.07;;
9904;SDS011;4991;43.566;27.820;2023-10-08T02:15:06;6.83;;;3.70;;
9904;SDS011;4991;43.566;27.820;2023-10-08T02:17:33;8.67;;;4.10;;
9904;SDS011;4991;43.566;27.820;2023-10-08T02:19:59;5.90;;;3.77;;
9904;SDS011;4991;43.566;27.820;2023-10-08T02:22:25;4.87;;;3.43;;
9904;SDS011;4991;43.566;27.820;2023-10-08T02:24:51;8.17;;;3.83;;
9904;SDS011;4991;43.566;27.820;2023-10-08T02:27:18;10.07;;;4.03;;
9904;SDS011;4991;43.566;27.820;2023-10-08T02:29:44;5.60;;;3.80;;
9904;SDS011;4991;43.566;27.820;2023-10-08T02:32:10;7.93;;;4.00;;
9904;SDS011;4991;43.566;27.820;2023-10-08T02:34:36;5.80;;;4.10;;
9904;SDS011;4991;43.566;27.820;2023-10-08T02:37:02;7.40;;;3.80;;
9904;SDS011;4991;43.566;27.820;2023-10-08T02:39:30;7.70;;;4.47;;
9904;SDS011;4991;43.566;27.820;2023-10-08T02:41:57;9.50;;;4.47;;
9904;SDS011;4991;43.566;27.820;2023-10-08T02:44:25;6.57;;;4.30;;
9904;SDS011;4991;43.566;27.820;2023-10-08T02:46:51;7.70;;;4.17;;
9904;SDS011;4991;43.566;27.820;2023-10-08T02:49:20;7.10;;;3.97;;
9904;SDS011;4991;43.566;27.820;2023-10-08T02:51:49;7.60;;;4.70;;
9904;SDS011;4991;43.566;27.820;2023-10-08T02:54:20;10.37;;;4.17;;
9904;SDS011;4991;43.566;27.820;2023-10-08T02:56:49;13.57;;;4.37;;
9904;SDS011;4991;43.566;27.820;2023-10-08T02:59:32;8.43;;;4.70;;
9904;SDS011;4991;43.566;27.820;2023-10-08T03:02:09;6.03;;;4.23;;
9904;SDS011;4991;43.566;27.820;2023-10-08T03:11:03;8.20;;;4.20;;
9904;SDS011;4991;43.566;27.820;2023-10-08T03:13:29;8.70;;;4.73;;
9904;SDS011;4991;43.566;27.820;2023-10-08T03:15:55;8.63;;;4.17;;
9904;SDS011;4991;43.566;27.820;2023-10-08T03:18:27;7.10;;;4.23;;
9904;SDS011;4991;43.566;27.820;2023-10-08T03:21:18;7.90;;;4.17;;
9904;SDS011;4991;43.566;27.820;2023-10-08T03:23:48;7.57;;;4.13;;
9904;SDS011;4991;43.566;27.820;2023-10-08T03:26:16;10.50;;;4.80;;
9904;SDS011;4991;43.566;27.820;2023-10-08T03:28:58;6.10;;;3.60;;
9904;SDS011;4991;43.566;27.820;2023-10-08T03:31:25;5.00;;;4.00;;
9904;SDS011;4991;43.566;27.820;2023-10-08T03:34:19;9.37;;;4.50;;
9904;SDS011;4991;43.566;27.820;2023-10-08T03:36:46;6.53;;;3.70;;
9904;SDS011;4991;43.566;27.820;2023-10-08T03:39:15;5.83;;;3.33;;
9904;SDS011;4991;43.566;27.820;2023-10-08T03:41:43;7.00;;;3.77;;
9904;SDS011;4991;43.566;27.820;2023-10-08T03:44:45;8.83;;;4.47;;
9904;SDS011;4991;43.566;27.820;2023-10-08T03:47:17;11.33;;;4.00;;
9904;SDS011;4991;43.566;27.820;2023-10-08T03:49:48;7.27;;;4.03;;
9904;SDS011;4991;43.566;27.820;2023-10-08T03:52:19;6.83;;;4.07;;
9904;SDS011;4991;43.566;27.820;2023-10-08T03:54:50;14.27;;;4.53;;
9904;SDS011;4991;43.566;27.820;2023-10-08T03:57:35;5.93;;;4.17;;
9904;SDS011;4991;43.566;27.820;2023-10-08T04:00:08;6.77;;;4.50;;
9904;SDS011;4991;43.566;27.820;2023-10-08T04:02:38;7.10;;;4.27;;
9904;SDS011;4991;43.566;27.820;2023-10-08T04:05:05;9.10;;;4.00;;
9904;SDS011;4991;43.566;27.820;2023-10-08T04:07:49;9.90;;;4.37;;
9904;SDS011;4991;43.566;27.820;2023-10-08T04:10:42;8.30;;;4.43;;
9904;SDS011;4991;43.566;27.820;2023-10-08T04:13:09;9.53;;;5.40;;
9904;SDS011;4991;43.566;27.820;2023-10-08T04:15:36;7.70;;;4.87;;
9904;SDS011;4991;43.566;27.820;2023-10-08T04:18:06;9.00;;;4.77;;
9904;SDS011;4991;43.566;27.820;2023-10-08T04:20:32;6.77;;;4.30;;
9904;SDS011;4991;43.566;27.820;2023-10-08T04:23:00;7.00;;;4.33;;
9904;SDS011;4991;43.566;27.820;2023-10-08T04:25:31;9.13;;;4.10;;
9904;SDS011;4991;43.566;27.820;2023-10-08T04:27:58;12.50;;;4.60;;
9904;SDS011;4991;43.566;27.820;2023-10-08T04:30:32;7.63;;;4.47;;
9904;SDS011;4991;43.566;27.820;2023-10-08T04:33:07;10.03;;;3.87;;
9904;SDS011;4991;43.566;27.820;2023-10-08T04:35:39;9.90;;;4.13;;
9904;SDS011;4991;43.566;27.820;2023-10-08T04:38:22;11.83;;;4.07;;
9904;SDS011;4991;43.566;27.820;2023-10-08T04:40:49;8.57;;;4.60;;
9904;SDS011;4991;43.566;27.820;2023-10-08T04:43:22;13.63;;;4.80;;
9904;SDS011;4991;43.566;27.820;2023-10-08T04:45:55;5.57;;;3.87;;
9904;SDS011;4991;43.566;27.820;2023-10-08T04:48:33;9.70;;;4.27;;
9904;SDS011;4991;43.566;27.820;2023-10-08T04:51:02;14.93;;;4.27;;
9904;SDS011;4991;43.566;27.820;2023-10-08T04:53:30;7.13;;;4.10;;
9904;SDS011;4991;43.566;27.820;2023-10-08T04:56:17;7.07;;;3.90;;
9904;SDS011;4991;43.566;27.820;2023-10-08T04:58:43;9.87;;;4.40;;
9904;SDS011;4991;43.566;27.820;2023-10-08T05:01:16;11.90;;;4.30;;
9904;SDS011;4991;43.566;27.820;2023-10-08T05:03:47;8.17;;;4.30;;
9904;SDS011;4991;43.566;27.820;2023-10-08T05:06:40;8.13;;;4.30;;
9904;SDS011;4991;43.566;27.820;2023-10-08T05:09:15;5.70;;;4.20;;
9904;SDS011;4991;43.566;27.820;2023-10-08T05:11:44;8.70;;;4.10;;
9904;SDS011;4991;43.566;27.820;2023-10-08T05:14:41;8.07;;;4.50;;
9904;SDS011;4991;43.566;27.820;2023-10-08T05:17:26;9.13;;;4.00;;
9904;SDS011;4991;43.566;27.820;2023-10-08T05:20:08;7.00;;;4.07;;
9904;SDS011;4991;43.566;27.820;2023-10-08T05:22:52;10.27;;;4.57;;
9904;SDS011;4991;43.566;27.820;2023-10-08T05:25:31;7.83;;;4.77;;
9904;SDS011;4991;43.566;27.820;2023-10-08T05:28:22;6.20;;;3.93;;
9904;SDS011;4991;43.566;27.820;2023-10-08T05:30:51;6.83;;;4.47;;
9904;SDS011;4991;43.566;27.820;2023-10-08T05:33:35;14.17;;;4.50;;
9904;SDS011;4991;43.566;27.820;2023-10-08T05:36:10;8.97;;;4.63;;
9904;SDS011;4991;43.566;27.820;2023-10-08T05:38:43;16.60;;;4.23;;
9904;SDS011;4991;43.566;27.820;2023-10-08T05:41:26;9.53;;;4.37;;
9904;SDS011;4991;43.566;27.820;2023-10-08T05:44:16;9.77;;;4.20;;
9904;SDS011;4991;43.566;27.820;2023-10-08T05:46:46;8.77;;;4.27;;
9904;SDS011;4991;43.566;27.820;2023-10-08T05:49:31;7.03;;;3.80;;
9904;SDS011;4991;43.566;27.820;2023-10-08T05:51:58;9.10;;;3.67;;
9904;SDS011;4991;43.566;27.820;2023-10-08T05:54:30;9.20;;;4.37;;
9904;SDS011;4991;43.566;27.820;2023-10-08T05:56:57;7.20;;;4.07;;
9904;SDS011;4991;43.566;27.820;2023-10-08T05:59:39;15.50;;;4.03;;
9904;SDS011;4991;43.566;27.820;2023-10-08T06:02:50;5.83;;;3.40;;
9904;SDS011;4991;43.566;27.820;2023-10-08T06:05:53;6.87;;;4.03;;
9904;SDS011;4991;43.566;27.820;2023-10-08T06:08:46;9.63;;;4.03;;
9904;SDS011;4991;43.566;27.820;2023-10-08T06:11:20;10.70;;;4.80;;
9904;SDS011;4991;43.566;27.820;2023-10-08T06:14:04;5.90;;;3.87;;
9904;SDS011;4991;43.566;27.820;2023-10-08T06:16:53;8.27;;;4.23;;
9904;SDS011;4991;43.566;27.820;2023-10-08T06:19:39;11.23;;;4.47;;
9904;SDS011;4991;43.566;27.820;2023-10-08T06:22:18;8.83;;;4.10;;
9904;SDS011;4991;43.566;27.820;2023-10-08T06:24:49;8.20;;;4.40;;
9904;SDS011;4991;43.566;27.820;2023-10-08T06:29:42;8.93;;;3.67;;
9904;SDS011;4991;43.566;27.820;2023-10-08T06:32:10;9.20;;;4.10;;
9904;SDS011;4991;43.566;27.820;2023-10-08T06:34:37;6.53;;;4.00;;
9904;SDS011;4991;43.566;27.820;2023-10-08T06:37:05;7.07;;;3.80;;
9904;SDS011;4991;43.566;27.820;2023-10-08T06:39:35;18.27;;;4.23;;
9904;SDS011;4991;43.566;27.820;2023-10-08T06:42:13;7.20;;;4.00;;
9904;SDS011;4991;43.566;27.820;2023-10-08T06:44:42;9.20;;;3.97;;
9904;SDS011;4991;43.566;27.820;2023-10-08T06:47:11;14.07;;;4.40;;
9904;SDS011;4991;43.566;27.820;2023-10-08T06:49:41;9.07;;;3.90;;
9904;SDS011;4991;43.566;27.820;2023-10-08T06:52:30;11.70;;;4.53;;
9904;SDS011;4991;43.566;27.820;2023-10-08T06:54:58;6.53;;;3.60;;
9904;SDS011;4991;43.566;27.820;2023-10-08T06:57:27;8.00;;;3.53;;
9904;SDS011;4991;43.566;27.820;2023-10-08T06:59:53;11.10;;;4.30;;
9904;SDS011;4991;43.566;27.820;2023-10-08T07:02:20;12.73;;;3.90;;
9904;SDS011;4991;43.566;27.820;2023-10-08T07:04:45;11.27;;;3.90;;
9904;SDS011;4991;43.566;27.820;2023-10-08T07:07:12;15.80;;;4.77;;
9904;SDS011;4991;43.566;27.820;2023-10-08T07:09:43;7.23;;;3.80;;
9904;SDS011;4991;43.566;27.820;2023-10-08T07:12:09;13.83;;;3.90;;
9904;SDS011;4991;43.566;27.820;2023-10-08T07:14:39;9.60;;;3.93;;
9904;SDS011;4991;43.566;27.820;2023-10-08T07:17:07;14.57;;;4.10;;
9904;SDS011;4991;43.566;27.820;2023-10-08T07:19:33;13.53;;;3.67;;
9904;SDS011;4991;43.566;27.820;2023-10-08T07:22:03;18.77;;;4.43;;
9904;SDS011;4991;43.566;27.820;2023-10-08T07:24:33;9.73;;;3.67;;
9904;SDS011;4991;43.566;27.820;2023-10-08T07:27:02;12.77;;;4.67;;
9904;SDS011;4991;43.566;27.820;2023-10-08T07:29:34;13.53;;;4.60;;
9904;SDS011;4991;43.566;27.820;2023-10-08T07:32:06;15.80;;;4.57;;
9904;SDS011;4991;43.566;27.820;2023-10-08T07:34:48;16.60;;;4.10;;
9904;SDS011;4991;43.566;27.820;2023-10-08T07:37:23;11.97;;;3.83;;
9904;SDS011;4991;43.566;27.820;2023-10-08T07:39:49;10.43;;;3.83;;
9904;SDS011;4991;43.566;27.820;2023-10-08T07:42:19;13.70;;;4.37;;
9904;SDS011;4991;43.566;27.820;2023-10-08T07:44:46;21.97;;;4.37;;
9904;SDS011;4991;43.566;27.820;2023-10-08T07:47:12;6.87;;;3.60;;
9904;SDS011;4991;43.566;27.820;2023-10-08T07:49:39;12.27;;;4.33;;
9904;SDS011;4991;43.566;27.820;2023-10-08T07:52:08;14.90;;;4.40;;
9904;SDS011;4991;43.566;27.820;2023-10-08T07:54:33;13.00;;;4.53;;
9904;SDS011;4991;43.566;27.820;2023-10-08T07:57:00;8.30;;;4.30;;
9904;SDS011;4991;43.566;27.820;2023-10-08T07:59:40;11.80;;;4.33;;
9904;SDS011;4991;43.566;27.820;2023-10-08T08:02:08;11.83;;;4.10;;
9904;SDS011;4991;43.566;27.820;2023-10-08T08:04:41;11.13;;;3.90;;
9904;SDS011;4991;43.566;27.820;2023-10-08T08:07:16;7.07;;;3.90;;
9904;SDS011;4991;43.566;27.820;2023-10-08T08:09:42;6.27;;;3.93;;
9904;SDS011;4991;43.566;27.820;2023-10-08T08:12:16;8.03;;;3.93;;
9904;SDS011;4991;43.566;27.820;2023-10-08T08:14:44;7.10;;;4.27;;
9904;SDS011;4991;43.566;27.820;2023-10-08T08:17:10;10.37;;;4.17;;
9904;SDS011;4991;43.566;27.820;2023-10-08T08:19:44;6.57;;;4.00;;
9904;SDS011;4991;43.566;27.820;2023-10-08T08:22:14;8.53;;;4.00;;
9904;SDS011;4991;43.566;27.820;2023-10-08T08:24:56;6.13;;;4.07;;
9904;SDS011;4991;43.566;27.820;2023-10-08T08:27:40;8.40;;;3.97;;
9904;SDS011;4991;43.566;27.820;2023-10-08T08:30:09;9.70;;;4.00;;
9904;SDS011;4991;43.566;27.820;2023-10-08T08:32:36;7.30;;;3.80;;
9904;SDS011;4991;43.566;27.820;2023-10-08T08:35:06;6.65;;;3.60;;
9904;SDS011;4991;43.566;27.820;2023-10-08T08:37:33;13.47;;;4.03;;
9904;SDS011;4991;43.566;27.820;2023-10-08T08:40:09;14.85;;;4.03;;
9904;SDS011;4991;43.566;27.820;2023-10-08T08:42:47;10.70;;;4.57;;
9904;SDS011;4991;43.566;27.820;2023-10-08T08:45:18;10.27;;;4.68;;
9904;SDS011;4991;43.566;27.820;2023-10-08T08:47:47;8.68;;;4.75;;
9904;SDS011;4991;43.566;27.820;2023-10-08T08:50:13;6.33;;;4.27;;
9904;SDS011;4991;43.566;27.820;2023-10-08T08:52:39;6.50;;;4.20;;
9904;SDS011;4991;43.566;27.820;2023-10-08T08:55:06;8.43;;;4.67;;
9904;SDS011;4991;43.566;27.820;2023-10-08T09:01:23;7.47;;;3.90;;
9904;SDS011;4991;43.566;27.820;2023-10-08T09:04:10;5.40;;;4.13;;
9904;SDS011;4991;43.566;27.820;2023-10-08T09:06:36;9.18;;;4.68;;
9904;SDS011;4991;43.566;27.820;2023-10-08T09:09:07;13.95;;;5.20;;
9904;SDS011;4991;43.566;27.820;2023-10-08T09:11:49;6.50;;;3.88;;
9904;SDS011;4991;43.566;27.820;2023-10-08T09:14:20;10.00;;;3.95;;
9904;SDS011;4991;43.566;27.820;2023-10-08T09:16:48;11.52;;;4.00;;
9904;SDS011;4991;43.566;27.820;2023-10-08T09:19:15;14.38;;;4.97;;
9904;SDS011;4991;43.566;27.820;2023-10-08T09:24:37;6.03;;;4.18;;
9904;SDS011;4991;43.566;27.820;2023-10-08T09:27:05;6.97;;;4.57;;
9904;SDS011;4991;43.566;27.820;2023-10-08T09:29:32;11.63;;;4.25;;
9904;SDS011;4991;43.566;27.820;2023-10-08T09:32:02;10.05;;;4.63;;
9904;SDS011;4991;43.566;27.820;2023-10-08T09:34:31;8.15;;;4.25;;
9904;SDS011;4991;43.566;27.820;2023-10-08T09:36:58;8.65;;;4.22;;
9904;SDS011;4991;43.566;27.820;2023-10-08T09:39:29;7.25;;;4.05;;
9904;SDS011;4991;43.566;27.820;2023-10-08T09:42:00;8.20;;;4.53;;
9904;SDS011;4991;43.566;27.820;2023-10-08T09:44:36;11.90;;;4.22;;
9904;SDS011;4991;43.566;27.820;2023-10-08T09:47:09;12.60;;;4.70;;
9904;SDS011;4991;43.566;27.820;2023-10-08T09:49:39;9.05;;;4.93;;
9904;SDS011;4991;43.566;27.820;2023-10-08T09:52:07;8.10;;;4.18;;
9904;SDS011;4991;43.566;27.820;2023-10-08T09:57:36;9.93;;;4.07;;
9904;SDS011;4991;43.566;27.820;2023-10-08T10:00:04;12.15;;;4.43;;
9904;SDS011;4991;43.566;27.820;2023-10-08T10:02:36;6.82;;;4.07;;
9904;SDS011;4991;43.566;27.820;2023-10-08T10:05:02;11.20;;;3.85;;
9904;SDS011;4991;43.566;27.820;2023-10-08T10:07:31;10.82;;;4.25;;
9904;SDS011;4991;43.566;27.820;2023-10-08T10:09:58;9.10;;;4.28;;
9904;SDS011;4991;43.566;27.820;2023-10-08T10:12:27;7.25;;;4.40;;
9904;SDS011;4991;43.566;27.820;2023-10-08T10:14:54;19.38;;;4.60;;
9904;SDS011;4991;43.566;27.820;2023-10-08T10:17:27;9.52;;;3.75;;
9904;SDS011;4991;43.566;27.820;2023-10-08T10:19:56;9.60;;;4.78;;
9904;SDS011;4991;43.566;27.820;2023-10-08T10:22:28;11.98;;;4.30;;
9904;SDS011;4991;43.566;27.820;2023-10-08T10:24:59;16.73;;;3.85;;
9904;SDS011;4991;43.566;27.820;2023-10-08T10:27:29;8.18;;;3.80;;
9904;SDS011;4991;43.566;27.820;2023-10-08T10:30:04;9.15;;;4.57;;
9904;SDS011;4991;43.566;27.820;2023-10-08T10:32:36;10.40;;;4.10;;
9904;SDS011;4991;43.566;27.820;2023-10-08T10:35:03;9.00;;;3.83;;
9904;SDS011;4991;43.566;27.820;2023-10-08T10:37:43;5.85;;;3.75;;
9904;SDS011;4991;43.566;27.820;2023-10-08T10:40:20;16.55;;;3.47;;
9904;SDS011;4991;43.566;27.820;2023-10-08T10:43:04;7.80;;;3.60;;
9904;SDS011;4991;43.566;27.820;2023-10-08T10:45:32;16.75;;;4.40;;
9904;SDS011;4991;43.566;27.820;2023-10-08T10:48:09;8.30;;;3.58;;
9904;SDS011;4991;43.566;27.820;2023-10-08T10:50:58;9.45;;;4.20;;
9904;SDS011;4991;43.566;27.820;2023-10-08T10:53:31;10.32;;;4.32;;
9904;SDS011;4991;43.566;27.820;2023-10-08T10:55:58;8.65;;;4.00;;
9904;SDS011;4991;43.566;27.820;2023-10-08T10:58:35;7.60;;;3.80;;
9904;SDS011;4991;43.566;27.820;2023-10-08T11:01:06;10.50;;;4.45;;
9904;SDS011;4991;43.566;27.820;2023-10-08T11:03:58;6.05;;;3.38;;
9904;SDS011;4991;43.566;27.820;2023-10-08T11:06:24;5.28;;;3.55;;
9904;SDS011;4991;43.566;27.820;2023-10-08T11:08:51;11.95;;;4.20;;
9904;SDS011;4991;43.566;27.820;2023-10-08T11:11:19;7.60;;;3.33;;
9904;SDS011;4991;43.566;27.820;2023-10-08T11:13:55;14.25;;;3.90;;
9904;SDS011;4991;43.566;27.820;2023-10-08T11:16:25;7.10;;;3.25;;
9904;SDS011;4991;43.566;27.820;2023-10-08T11:18:53;14.02;;;3.65;;
9904;SDS011;4991;43.566;27.820;2023-10-08T11:21:23;9.73;;;4.05;;
9904;SDS011;4991;43.566;27.820;2023-10-08T11:26:36;9.95;;;3.55;;
9904;SDS011;4991;43.566;27.820;2023-10-08T11:31:56;12.05;;;3.58;;
9904;SDS011;4991;43.566;27.820;2023-10-08T11:37:29;14.13;;;3.55;;
9904;SDS011;4991;43.566;27.820;2023-10-08T11:39:59;8.50;;;3.45;;
9904;SDS011;4991;43.566;27.820;2023-10-08T11:42:34;13.52;;;3.75;;
9904;SDS011;4991;43.566;27.820;2023-10-08T11:44:59;9.98;;;3.35;;
9904;SDS011;4991;43.566;27.820;2023-10-08T11:47:43;8.45;;;3.38;;
9904;SDS011;4991;43.566;27.820;2023-10-08T11:50:11;7.40;;;3.33;;
9904;SDS011;4991;43.566;27.820;2023-10-08T11:52:42;13.10;;;3.60;;
9904;SDS011;4991;43.566;27.820;2023-10-08T11:55:13;9.68;;;3.13;;
9904;SDS011;4991;43.566;27.820;2023-10-08T11:57:49;10.35;;;3.72;;
9904;SDS011;4991;43.566;27.820;2023-10-08T12:00:17;8.05;;;3.80;;
9904;SDS011;4991;43.566;27.820;2023-10-08T12:02:51;15.15;;;3.58;;
9904;SDS011;4991;43.566;27.820;2023-10-08T12:05:34;7.93;;;3.03;;
9904;SDS011;4991;43.566;27.820;2023-10-08T12:10:38;7.05;;;3.17;;
9904;SDS011;4991;43.566;27.820;2023-10-08T12:13:05;9.57;;;3.60;;
9904;SDS011;4991;43.566;27.820;2023-10-08T12:15:32;10.40;;;3.30;;
9904;SDS011;4991;43.566;27.820;2023-10-08T12:18:04;14.00;;;3.83;;
9904;SDS011;4991;43.566;27.820;2023-10-08T12:20:50;11.05;;;3.92;;
9904;SDS011;4991;43.566;27.820;2023-10-08T12:23:16;10.50;;;3.63;;
9904;SDS011;4991;43.566;27.820;2023-10-08T12:25:50;11.13;;;3.55;;
9904;SDS011;4991;43.566;27.820;2023-10-08T12:28:18;16.10;;;4.10;;
9904;SDS011;4991;43.566;27.820;2023-10-08T12:30:44;9.25;;;4.15;;
9904;SDS011;4991;43.566;27.820;2023-10-08T12:33:11;12.32;;;3.90;;
9904;SDS011;4991;43.566;27.820;2023-10-08T12:35:43;16.17;;;3.78;;
9904;SDS011;4991;43.566;27.820;2023-10-08T12:38:18;12.85;;;3.95;;
9904;SDS011;4991;43.566;27.820;2023-10-08T12:40:47;11.23;;;4.45;;
9904;SDS011;4991;43.566;27.820;2023-10-08T12:43:18;16.08;;;4.03;;
9904;SDS011;4991;43.566;27.820;2023-10-08T12:45:45;9.20;;;3.80;;
9904;SDS011;4991;43.566;27.820;2023-10-08T12:48:26;7.65;;;3.42;;
9904;SDS011;4991;43.566;27.820;2023-10-08T12:50:53;12.55;;;3.78;;
9904;SDS011;4991;43.566;27.820;2023-10-08T12:53:26;11.32;;;3.97;;
9904;SDS011;4991;43.566;27.820;2023-10-08T12:56:00;7.53;;;3.10;;
9904;SDS011;4991;43.566;27.820;2023-10-08T12:58:34;9.25;;;3.63;;
9904;SDS011;4991;43.566;27.820;2023-10-08T13:01:07;11.75;;;3.63;;
9904;SDS011;4991;43.566;27.820;2023-10-08T13:03:35;10.80;;;3.17;;
9904;SDS011;4991;43.566;27.820;2023-10-08T13:06:11;14.23;;;3.70;;
9904;SDS011;4991;43.566;27.820;2023-10-08T13:08:51;9.73;;;3.95;;
9904;SDS011;4991;43.566;27.820;2023-10-08T13:11:19;13.27;;;3.83;;
9904;SDS011;4991;43.566;27.820;2023-10-08T13:13:50;16.20;;;3.88;;
9904;SDS011;4991;43.566;27.820;2023-10-08T13:16:20;11.85;;;4.00;;
9904;SDS011;4991;43.566;27.820;2023-10-08T13:18:49;15.18;;;4.70;;
9904;SDS011;4991;43.566;27.820;2023-10-08T13:21:15;15.40;;;4.38;;
9904;SDS011;4991;43.566;27.820;2023-10-08T13:23:41;15.70;;;5.72;;
9904;SDS011;4991;43.566;27.820;2023-10-08T13:26:08;10.10;;;4.32;;
9904;SDS011;4991;43.566;27.820;2023-10-08T13:28:36;14.73;;;4.88;;
9904;SDS011;4991;43.566;27.820;2023-10-08T13:31:03;17.25;;;4.20;;
9904;SDS011;4991;43.566;27.820;2023-10-08T13:33:38;10.63;;;4.38;;
9904;SDS011;4991;43.566;27.820;2023-10-08T13:36:05;13.32;;;4.03;;
9904;SDS011;4991;43.566;27.820;2023-10-08T13:38:51;13.60;;;4.00;;
9904;SDS011;4991;43.566;27.820;2023-10-08T13:41:17;8.35;;;3.60;;
9904;SDS011;4991;43.566;27.820;2023-10-08T13:43:46;11.30;;;4.45;;
9904;SDS011;4991;43.566;27.820;2023-10-08T13:46:25;16.58;;;4.18;;
9904;SDS011;4991;43.566;27.820;2023-10-08T13:48:51;15.95;;;4.40;;
9904;SDS011;4991;43.566;27.820;2023-10-08T13:51:37;10.13;;;4.38;;
9904;SDS011;4991;43.566;27.820;2023-10-08T13:54:03;17.42;;;5.65;;
9904;SDS011;4991;43.566;27.820;2023-10-08T13:56:34;14.27;;;5.32;;
9904;SDS011;4991;43.566;27.820;2023-10-08T13:59:20;12.80;;;4.38;;
9904;SDS011;4991;43.566;27.820;2023-10-08T14:01:55;17.77;;;4.97;;
9904;SDS011;4991;43.566;27.820;2023-10-08T14:04:23;12.55;;;4.47;;
9904;SDS011;4991;43.566;27.820;2023-10-08T14:06:55;17.63;;;4.97;;
9904;SDS011;4991;43.566;27.820;2023-10-08T14:09:23;21.23;;;4.90;;
9904;SDS011;4991;43.566;27.820;2023-10-08T14:12:02;13.95;;;4.43;;
9904;SDS011;4991;43.566;27.820;2023-10-08T14:14:29;9.88;;;4.45;;
9904;SDS011;4991;43.566;27.820;2023-10-08T14:17:00;11.45;;;4.03;;
9904;SDS011;4991;43.566;27.820;2023-10-08T14:19:40;13.30;;;4.15;;
9904;SDS011;4991;43.566;27.820;2023-10-08T14:22:13;18.48;;;4.60;;
9904;SDS011;4991;43.566;27.820;2023-10-08T14:24:39;17.17;;;4.65;;
9904;SDS011;4991;43.566;27.820;2023-10-08T14:27:05;20.77;;;4.85;;
9904;SDS011;4991;43.566;27.820;2023-10-08T14:29:40;17.95;;;4.47;;
9904;SDS011;4991;43.566;27.820;2023-10-08T14:32:09;14.80;;;4.90;;
9904;SDS011;4991;43.566;27.820;2023-10-08T14:34:40;18.90;;;4.60;;
9904;SDS011;4991;43.566;27.820;2023-10-08T14:37:12;22.00;;;4.82;;
9904;SDS011;4991;43.566;27.820;2023-10-08T14:39:57;21.33;;;4.82;;
9904;SDS011;4991;43.566;27.820;2023-10-08T14:42:42;17.77;;;4.10;;
9904;SDS011;4991;43.566;27.820;2023-10-08T14:45:32;14.52;;;4.00;;
9904;SDS011;4991;43.566;27.820;2023-10-08T14:48:26;16.95;;;4.32;;
9904;SDS011;4991;43.566;27.820;2023-10-08T14:50:56;14.25;;;3.80;;
9904;SDS011;4991;43.566;27.820;2023-10-08T14:53:32;10.68;;;4.30;;
9904;SDS011;4991;43.566;27.820;2023-10-08T14:56:08;16.95;;;4.07;;
9904;SDS011;4991;43.566;27.820;2023-10-08T14:58:35;27.50;;;5.70;;
9904;SDS011;4991;43.566;27.820;2023-10-08T15:01:02;21.52;;;5.20;;
9904;SDS011;4991;43.566;27.820;2023-10-08T15:03:28;17.77;;;5.50;;
9904;SDS011;4991;43.566;27.820;2023-10-08T15:05:54;14.65;;;4.55;;
9904;SDS011;4991;43.566;27.820;2023-10-08T15:08:21;23.00;;;5.47;;
9904;SDS011;4991;43.566;27.820;2023-10-08T15:10:47;18.30;;;5.45;;
9904;SDS011;4991;43.566;27.820;2023-10-08T15:13:13;18.75;;;5.10;;
9904;SDS011;4991;43.566;27.820;2023-10-08T15:15:39;16.27;;;5.28;;
9904;SDS011;4991;43.566;27.820;2023-10-08T15:18:05;22.20;;;5.90;;
9904;SDS011;4991;43.566;27.820;2023-10-08T15:20:34;23.70;;;6.75;;
9904;SDS011;4991;43.566;27.820;2023-10-08T15:23:01;20.45;;;6.10;;
9904;SDS011;4991;43.566;27.820;2023-10-08T15:25:27;21.77;;;5.93;;
9904;SDS011;4991;43.566;27.820;2023-10-08T15:27:52;98.95;;;11.07;;
9904;SDS011;4991;43.566;27.820;2023-10-08T15:30:18;111.28;;;12.23;;
9904;SDS011;4991;43.566;27.820;2023-10-08T15:32:45;106.53;;;14.43;;
9904;SDS011;4991;43.566;27.820;2023-10-08T15:35:15;80.50;;;9.30;;
9904;SDS011;4991;43.566;27.820;2023-10-08T15:37:45;52.30;;;7.07;;
9904;SDS011;4991;43.566;27.820;2023-10-08T15:40:12;53.70;;;6.67;;
9904;SDS011;4991;43.566;27.820;2023-10-08T15:42:49;75.00;;;7.13;;
9904;SDS011;4991;43.566;27.820;2023-10-08T15:45:19;32.30;;;4.33;;
9904;SDS011;4991;43.566;27.820;2023-10-08T15:47:46;44.37;;;5.53;;
9904;SDS011;4991;43.566;27.820;2023-10-08T15:50:14;45.30;;;5.37;;
9904;SDS011;4991;43.566;27.820;2023-10-08T15:52:40;46.70;;;5.67;;
9904;SDS011;4991;43.566;27.820;2023-10-08T15:55:06;65.27;;;6.87;;
9904;SDS011;4991;43.566;27.820;2023-10-08T15:57:33;51.87;;;5.57;;
9904;SDS011;4991;43.566;27.820;2023-10-08T15:59:58;65.10;;;6.57;;
9904;SDS011;4991;43.566;27.820;2023-10-08T16:02:24;67.10;;;6.20;;